Time;durP1;ratioP1;P1;durP2;ratioP2;P2;SDS_P1;SDS_P2;PMS_P1;PMS_P2;Temp;Humidity;BMP_temperature;BMP_pressure;BME280_temperature;BME280_humidity;BME280_pressure;Samples;Min_cycle;Max_cycle;Signal;HPM_P1;HPM_P2
2024/02/22 00:01:12;;;;;;;;;;;;;;;11.07;54.43;99799.47;4919695;28;98018;-72
2024/02/22 00:03:38;;;;;;;;;;;;;;;11.09;54.47;99796.53;4931215;28;98853;-68
2024/02/22 00:06:05;;;;;;;;;;;;;;;11.16;54.52;99789.69;4915234;28;124053;-72
2024/02/22 00:08:31;;;;;;;;;;;;;;;11.24;54.50;99790.97;4905081;28;121345;-68
2024/02/22 00:11:00;;;;;;;;;;;;;;;11.30;54.52;99776.31;4901668;28;98819;-72
2024/02/22 00:13:26;;;;;;;;;;;;;;;11.37;54.28;99771.38;4923364;28;98129;-72
2024/02/22 00:15:52;;;;;;;;;;;;;;;11.44;54.38;99779.13;4910280;28;99509;-72
2024/02/22 00:18:20;;;;;;;;;;;;;;;11.47;54.33;99771.22;4912744;28;122320;-71
2024/02/22 00:20:46;;;;;;;;;;;;;;;11.52;54.50;99767.66;4935497;28;98489;-72
2024/02/22 00:23:12;;;;;;;;;;;;;;;11.55;54.20;99758.97;4945828;28;98601;-72
2024/02/22 00:25:38;;;;;;;;;;;;;;;11.59;54.41;99764.59;4920491;28;98097;-73
2024/02/22 00:28:04;;;;;;;;;;;;;;;11.61;54.35;99760.53;4921767;28;123238;-72
2024/02/22 00:30:30;;;;;;;;;;;;;;;11.63;54.20;99755.66;4916730;28;98694;-68
2024/02/22 00:32:57;;;;;;;;;;;;;;;11.65;54.13;99742.66;4922937;28;98040;-73
2024/02/22 00:35:23;;;;;;;;;;;;;;;11.67;54.22;99735.06;4937236;28;97952;-68
2024/02/22 00:37:49;;;;;;;;;;;;;;;11.68;54.33;99736.66;4934323;28;98157;-68
2024/02/22 00:40:17;;;;;;;;;;;;;;;11.70;54.23;99723.66;4930789;28;128386;-72
2024/02/22 00:42:43;;;;;;;;;;;;;;;11.71;54.41;99711.78;4920516;28;99553;-68
2024/02/22 00:45:10;;;;;;;;;;;;;;;11.73;54.39;99703.41;4950377;28;111504;-68
2024/02/22 00:47:36;;;;;;;;;;;;;;;11.73;54.47;99698.78;4914697;28;99369;-68
2024/02/22 00:50:02;;;;;;;;;;;;;;;11.74;54.38;99683.38;4924040;28;101306;-72
2024/02/22 00:52:29;;;;;;;;;;;;;;;11.75;54.33;99690.38;4926008;28;97951;-68
2024/02/22 00:54:55;;;;;;;;;;;;;;;11.75;54.38;99688.50;4921188;28;98395;-68
2024/02/22 00:57:21;;;;;;;;;;;;;;;11.76;54.49;99690.09;4920823;28;98411;-67
2024/02/22 00:59:47;;;;;;;;;;;;;;;11.76;54.47;99679.31;4917532;28;98279;-72
2024/02/22 01:02:13;;;;;;;;;;;;;;;11.76;54.32;99671.22;4917430;28;100195;-67
2024/02/22 01:04:40;;;;;;;;;;;;;;;11.77;54.44;99666.59;4953949;28;98121;-73
2024/02/22 01:07:06;;;;;;;;;;;;;;;11.78;54.38;99657.41;4922761;28;98040;-68
2024/02/22 01:09:32;;;;;;;;;;;;;;;11.78;54.29;99654.69;4923313;28;98508;-68
2024/02/22 01:11:58;;;;;;;;;;;;;;;11.77;54.31;99645.81;4906822;28;100048;-67
2024/02/22 01:14:25;;;;;;;;;;;;;;;11.79;54.46;99640.13;4921618;28;98438;-67
2024/02/22 01:16:51;;;;;;;;;;;;;;;11.78;54.37;99638.50;4929280;28;98476;-67
2024/02/22 01:19:17;;;;;;;;;;;;;;;11.77;54.39;99632.31;4920432;28;98631;-67
2024/02/22 01:21:44;;;;;;;;;;;;;;;11.79;54.42;99626.63;4926379;28;98107;-72
2024/02/22 01:24:10;;;;;;;;;;;;;;;11.79;54.33;99626.63;4905169;28;99837;-72
2024/02/22 01:26:36;;;;;;;;;;;;;;;11.78;54.31;99620.41;4924469;28;122738;-72
2024/02/22 01:29:03;;;;;;;;;;;;;;;11.79;54.37;99615.84;4921048;28;98025;-72
2024/02/22 01:31:30;;;;;;;;;;;;;;;11.79;54.29;99607.72;4919935;28;98097;-72
2024/02/22 01:33:56;;;;;;;;;;;;;;;11.79;54.33;99599.63;4935499;28;98088;-72
2024/02/22 01:36:24;;;;;;;;;;;;;;;11.79;54.38;99596.94;4939720;28;98977;-67
2024/02/22 01:38:51;;;;;;;;;;;;;;;11.79;54.49;99589.63;4939078;28;128198;-67
2024/02/22 01:41:17;;;;;;;;;;;;;;;11.79;54.29;99591.53;4938625;28;98231;-71
2024/02/22 01:43:43;;;;;;;;;;;;;;;11.79;54.37;99584.22;4912287;28;98129;-67
2024/02/22 01:46:10;;;;;;;;;;;;;;;11.78;54.22;99590.69;4916890;28;97952;-68
2024/02/22 01:48:36;;;;;;;;;;;;;;;11.79;54.26;99580.72;4921699;28;98256;-72
2024/02/22 01:51:02;;;;;;;;;;;;;;;11.79;54.36;99578.84;4906887;28;125051;-67
2024/02/22 01:53:29;;;;;;;;;;;;;;;11.78;54.39;99569.09;4899672;28;126966;-68
2024/02/22 01:56:00;;;;;;;;;;;;;;;11.79;54.29;99561.84;4907571;28;98339;-68
2024/02/22 01:58:36;;;;;;;;;;;;;;;11.77;54.52;99553.22;4922297;28;99843;-72
2024/02/22 02:01:03;;;;;;;;;;;;;;;11.78;54.42;99552.09;4938400;28;98142;-72
2024/02/22 02:03:29;;;;;;;;;;;;;;;11.77;54.46;99554.00;4923819;28;98135;-68
2024/02/22 02:05:56;;;;;;;;;;;;;;;11.77;54.37;99556.72;4918832;28;99821;-68
2024/02/22 02:08:23;;;;;;;;;;;;;;;11.77;54.67;99537.81;4923847;28;99846;-68
2024/02/22 02:10:50;;;;;;;;;;;;;;;11.76;54.21;99533.50;4925096;28;99801;-72
2024/02/22 02:13:16;;;;;;;;;;;;;;;11.77;54.36;99529.72;4935437;28;97993;-68
2024/02/22 02:15:42;;;;;;;;;;;;;;;11.76;54.46;99511.13;4918353;28;98227;-67
2024/02/22 02:18:08;;;;;;;;;;;;;;;11.76;54.24;99509.22;4918552;28;98376;-71
2024/02/22 02:20:58;;;;;;;;;;;;;;;11.77;54.29;99505.41;4922908;28;126411;-72
2024/02/22 02:24:06;;;;;;;;;;;;;;;11.77;54.36;99496.50;4905565;28;99103;-68
2024/02/22 02:26:32;;;;;;;;;;;;;;;11.78;54.31;99492.72;4939607;28;98650;-72
2024/02/22 02:28:58;;;;;;;;;;;;;;;11.77;54.47;99491.91;4917930;28;128490;-72
2024/02/22 02:31:26;;;;;;;;;;;;;;;11.77;54.42;99478.41;4920201;28;131552;-68
2024/02/22 02:33:52;;;;;;;;;;;;;;;11.79;54.51;99480.84;4922039;28;98145;-72
2024/02/22 02:36:18;;;;;;;;;;;;;;;11.78;54.36;99471.09;4918148;28;98220;-72
2024/02/22 02:38:44;;;;;;;;;;;;;;;11.78;54.34;99471.91;4933984;28;128485;-68
2024/02/22 02:41:10;;;;;;;;;;;;;;;11.78;54.44;99469.22;4918848;28;98460;-72
2024/02/22 02:43:36;;;;;;;;;;;;;;;11.79;54.33;99460.03;4907608;28;98411;-72
2024/02/22 02:46:02;;;;;;;;;;;;;;;11.79;54.37;99456.53;4945089;28;112814;-72
2024/02/22 02:48:28;;;;;;;;;;;;;;;11.78;54.37;99447.59;4905584;28;98185;-72
2024/02/22 02:50:54;;;;;;;;;;;;;;;11.79;54.34;99438.44;4921085;28;100134;-68
2024/02/22 02:53:22;;;;;;;;;;;;;;;11.80;54.45;99429.22;4914381;28;98317;-72
2024/02/22 02:55:48;;;;;;;;;;;;;;;11.80;54.34;99415.72;4920400;28;98343;-72
2024/02/22 02:58:17;;;;;;;;;;;;;;;11.81;54.35;99413.81;4904803;28;129882;-68
2024/02/22 03:00:45;;;;;;;;;;;;;;;11.82;54.23;99418.13;4937199;28;98131;-72
2024/02/22 03:03:11;;;;;;;;;;;;;;;11.82;54.24;99404.59;4917352;28;128018;-72
2024/02/22 03:05:40;;;;;;;;;;;;;;;11.83;54.52;99397.31;4948638;28;98007;-72
2024/02/22 03:08:06;;;;;;;;;;;;;;;11.81;54.48;99392.22;4922274;28;99899;-68
2024/02/22 03:10:32;;;;;;;;;;;;;;;11.83;54.38;99389.22;4939146;28;98199;-68
2024/02/22 03:13:01;;;;;;;;;;;;;;;11.83;54.40;99390.06;4910262;28;129740;-68
2024/02/22 03:15:27;;;;;;;;;;;;;;;11.84;54.20;99378.16;4931619;28;98277;-68
2024/02/22 03:17:53;;;;;;;;;;;;;;;11.83;54.52;99373.88;4924255;28;98026;-68
2024/02/22 03:20:20;;;;;;;;;;;;;;;11.85;53.95;99376.25;4914856;28;121401;-68
2024/02/22 03:22:46;;;;;;;;;;;;;;;11.83;54.47;99371.16;4922989;28;98325;-72
2024/02/22 03:25:12;;;;;;;;;;;;;;;11.84;54.22;99370.06;4930847;28;98629;-67
2024/02/22 03:27:38;;;;;;;;;;;;;;;11.84;54.42;99366.56;4900139;28;99869;-68
2024/02/22 03:30:05;;;;;;;;;;;;;;;11.85;54.39;99368.16;4914114;28;98252;-72
2024/02/22 03:32:30;;;;;;;;;;;;;;;11.84;54.48;99359.25;4936817;28;99484;-72
2024/02/22 03:34:58;;;;;;;;;;;;;;;11.85;54.39;99357.34;4916944;28;107679;-67
2024/02/22 03:37:24;;;;;;;;;;;;;;;11.86;54.49;99356.25;4900238;28;99593;-68
2024/02/22 03:39:50;;;;;;;;;;;;;;;11.85;54.32;99352.75;4902128;28;103719;-68
2024/02/22 03:42:17;;;;;;;;;;;;;;;11.84;54.61;99343.06;4921525;28;98079;-68
2024/02/22 03:44:43;;;;;;;;;;;;;;;11.85;54.68;99352.75;4903333;28;98465;-68
2024/02/22 03:47:09;;;;;;;;;;;;;;;11.84;54.28;99340.34;4898486;28;98832;-72
2024/02/22 03:49:35;;;;;;;;;;;;;;;11.86;54.38;99340.03;4905880;28;100584;-72
2024/02/22 03:52:01;;;;;;;;;;;;;;;11.85;54.32;99339.25;4914275;28;98126;-72
2024/02/22 03:54:27;;;;;;;;;;;;;;;11.85;54.34;99328.44;4902783;28;112755;-72
2024/02/22 03:56:53;;;;;;;;;;;;;;;11.86;54.22;99326.53;4922971;28;98089;-72
2024/02/22 03:59:20;;;;;;;;;;;;;;;11.86;54.38;99334.63;4915262;28;98250;-68
2024/02/22 04:01:46;;;;;;;;;;;;;;;11.86;54.24;99321.13;4921613;28;114891;-72
2024/02/22 04:04:12;;;;;;;;;;;;;;;11.85;54.33;99311.44;4906199;28;106748;-72
2024/02/22 04:06:38;;;;;;;;;;;;;;;11.85;54.26;99317.63;4940880;28;128645;-68
2024/02/22 04:09:05;;;;;;;;;;;;;;;11.85;54.38;99312.25;4904213;28;98246;-69
2024/02/22 04:11:31;;;;;;;;;;;;;;;11.86;54.29;99308.44;4905598;28;98163;-72
2024/02/22 04:13:57;;;;;;;;;;;;;;;11.85;54.44;99301.44;4910640;28;98241;-73
2024/02/22 04:16:23;;;;;;;;;;;;;;;11.85;54.42;99296.03;4921852;28;116115;-68
2024/02/22 04:18:49;;;;;;;;;;;;;;;11.84;54.37;99299.84;4917935;28;114259;-72
2024/02/22 04:21:15;;;;;;;;;;;;;;;11.84;54.24;99294.44;4912631;28;98138;-73
2024/02/22 04:23:41;;;;;;;;;;;;;;;11.84;54.29;99288.25;4902590;28;98337;-68
2024/02/22 04:26:07;;;;;;;;;;;;;;;11.84;54.45;99293.66;4922880;28;99846;-69
2024/02/22 04:28:33;;;;;;;;;;;;;;;11.83;54.31;99287.47;4951555;28;98460;-69
2024/02/22 04:31:03;;;;;;;;;;;;;;;11.81;54.28;99281.53;4922792;28;97932;-68
2024/02/22 04:33:30;;;;;;;;;;;;;;;11.82;54.31;99285.03;4912366;28;98151;-69
2024/02/22 04:35:56;;;;;;;;;;;;;;;11.80;54.47;99274.53;4940744;28;98598;-69
2024/02/22 04:38:22;;;;;;;;;;;;;;;11.80;54.29;99271.84;4907268;28;99211;-69
2024/02/22 04:40:48;;;;;;;;;;;;;;;11.79;54.29;99267.53;4913042;28;98022;-72
2024/02/22 04:43:14;;;;;;;;;;;;;;;11.76;54.28;99262.75;4926971;28;98180;-69
2024/02/22 04:45:40;;;;;;;;;;;;;;;11.77;54.50;99257.03;4925974;28;98165;-68
2024/02/22 04:48:06;;;;;;;;;;;;;;;11.77;54.51;99257.03;4918891;28;124355;-72
2024/02/22 04:50:36;;;;;;;;;;;;;;;11.77;54.43;99261.63;4936728;28;99382;-72
2024/02/22 04:53:04;;;;;;;;;;;;;;;11.76;54.25;99254.66;4938775;28;122748;-72
2024/02/22 04:55:32;;;;;;;;;;;;;;;11.74;54.27;99256.84;4941024;28;98804;-72
2024/02/22 04:57:59;;;;;;;;;;;;;;;11.75;54.48;99248.44;4940961;28;100287;-69
2024/02/22 05:00:26;;;;;;;;;;;;;;;11.74;54.45;99244.13;4905530;28;99965;-73
2024/02/22 05:02:52;;;;;;;;;;;;;;;11.73;54.31;99242.53;4906767;28;98059;-72
2024/02/22 05:05:18;;;;;;;;;;;;;;;11.74;54.29;99241.44;4923779;28;97987;-72
2024/02/22 05:07:44;;;;;;;;;;;;;;;11.74;54.53;99229.84;4941618;28;121725;-72
2024/02/22 05:10:10;;;;;;;;;;;;;;;11.72;54.54;99226.66;4901594;28;127346;-72
2024/02/22 05:12:37;;;;;;;;;;;;;;;11.72;54.15;99222.06;4919591;28;98141;-69
2024/02/22 05:15:04;;;;;;;;;;;;;;;11.72;54.45;99207.78;4920562;28;99325;-69
2024/02/22 05:17:30;;;;;;;;;;;;;;;11.72;54.12;99213.16;4922639;28;98243;-72
2024/02/22 05:19:57;;;;;;;;;;;;;;;11.72;54.50;99200.47;4923220;28;127694;-68
2024/02/22 05:22:23;;;;;;;;;;;;;;;11.71;54.50;99201.56;4935681;28;98429;-73
2024/02/22 05:24:49;;;;;;;;;;;;;;;11.71;54.27;99184.56;4907029;28;119060;-68
2024/02/22 05:27:15;;;;;;;;;;;;;;;11.71;54.37;99185.38;4904419;28;98114;-68
2024/02/22 05:29:41;;;;;;;;;;;;;;;11.70;54.42;99178.34;4919121;28;99110;-68
2024/02/22 05:32:09;;;;;;;;;;;;;;;11.70;54.36;99172.16;4910136;28;98257;-72
2024/02/22 05:34:35;;;;;;;;;;;;;;;11.69;54.35;99167.88;4917911;28;98231;-68
2024/02/22 05:37:03;;;;;;;;;;;;;;;11.69;54.35;99154.38;4903215;28;99280;-74
2024/02/22 05:39:30;;;;;;;;;;;;;;;11.68;54.28;99150.88;4909707;28;98037;-68
2024/02/22 05:41:59;;;;;;;;;;;;;;;11.68;54.36;99150.09;4941615;28;98250;-68
2024/02/22 05:44:25;;;;;;;;;;;;;;;11.67;54.39;99145.78;4909680;28;98239;-72
2024/02/22 05:46:53;;;;;;;;;;;;;;;11.67;54.40;99134.97;4906620;28;98429;-68
2024/02/22 05:49:21;;;;;;;;;;;;;;;11.68;54.39;99142.00;4934436;28;98249;-72
2024/02/22 05:51:47;;;;;;;;;;;;;;;11.66;54.42;99128.00;4938020;28;98334;-68
2024/02/22 05:54:13;;;;;;;;;;;;;;;11.67;54.54;99137.69;4902813;28;99934;-72
2024/02/22 05:56:40;;;;;;;;;;;;;;;11.66;54.37;99134.19;4933022;28;98233;-68
2024/02/22 05:59:06;;;;;;;;;;;;;;;11.66;54.60;99133.41;4911804;28;97959;-72
2024/02/22 06:01:34;;;;;;;;;;;;;;;11.65;54.41;99127.19;4935765;28;98174;-68
2024/02/22 06:04:01;;;;;;;;;;;;;;;11.64;54.42;99127.53;4908616;28;98813;-72
2024/02/22 06:06:27;;;;;;;;;;;;;;;11.61;54.55;99120.03;4918801;28;98821;-72
2024/02/22 06:08:54;;;;;;;;;;;;;;;11.59;54.57;99119.53;4918046;28;100928;-73
2024/02/22 06:11:24;;;;;;;;;;;;;;;11.57;54.62;99116.34;4907006;28;98341;-68
2024/02/22 06:13:51;;;;;;;;;;;;;;;11.53;54.57;99111.56;4919516;28;101272;-68
2024/02/22 06:16:17;;;;;;;;;;;;;;;11.51;54.32;99110.25;4914139;28;98054;-69
2024/02/22 06:18:44;;;;;;;;;;;;;;;11.48;54.40;99111.69;4906305;28;99255;-72
2024/02/22 06:21:10;;;;;;;;;;;;;;;11.45;54.51;99106.88;4921389;28;98356;-68
2024/02/22 06:23:37;;;;;;;;;;;;;;;11.43;54.43;99103.69;4911422;28;97898;-72
2024/02/22 06:26:04;;;;;;;;;;;;;;;11.41;54.60;99097.81;4919121;28;98296;-68
2024/02/22 06:28:31;;;;;;;;;;;;;;;11.38;54.53;99093.03;4926450;28;98740;-73
2024/02/22 06:30:58;;;;;;;;;;;;;;;11.37;54.48;99096.84;4918013;28;99528;-69
2024/02/22 06:33:24;;;;;;;;;;;;;;;11.35;54.45;99084.75;4905205;28;98779;-72
2024/02/22 06:35:50;;;;;;;;;;;;;;;11.34;54.62;99081.25;4920340;28;98108;-72
2024/02/22 06:38:16;;;;;;;;;;;;;;;11.32;54.44;99083.47;4941622;28;102385;-72
2024/02/22 06:40:49;;;;;;;;;;;;;;;11.30;54.49;99074.88;4926490;28;105292;-69
2024/02/22 06:43:17;;;;;;;;;;;;;;;11.30;54.63;99082.97;4917716;28;98488;-69
2024/02/22 06:45:43;;;;;;;;;;;;;;;11.28;54.51;99071.69;4918193;28;98172;-68
2024/02/22 06:48:10;;;;;;;;;;;;;;;11.28;54.47;99079.78;4907378;28;98493;-72
2024/02/22 06:50:37;;;;;;;;;;;;;;;11.26;54.61;99063.09;4904362;28;98402;-68
2024/02/22 06:53:03;;;;;;;;;;;;;;;11.26;54.46;99065.78;4920338;28;98529;-69
2024/02/22 06:55:31;;;;;;;;;;;;;;;11.25;54.61;99061.50;4927640;28;100711;-72
2024/02/22 06:57:58;;;;;;;;;;;;;;;11.24;54.47;99063.41;4907399;28;98246;-72
2024/02/22 07:00:25;;;;;;;;;;;;;;;11.23;54.50;99055.59;4920826;28;98019;-72
2024/02/22 07:02:52;;;;;;;;;;;;;;;11.21;54.49;99055.91;4936350;28;98498;-71
2024/02/22 07:05:20;;;;;;;;;;;;;;;11.21;54.23;99052.44;4901151;28;99017;-68
2024/02/22 07:07:47;;;;;;;;;;;;;;;11.21;54.45;99044.34;4906815;28;98239;-72
2024/02/22 07:10:15;;;;;;;;;;;;;;;11.22;54.47;99037.84;4904793;28;99293;-71
2024/02/22 07:12:45;;;;;;;;;;;;;;;11.21;54.40;99034.34;4941134;28;99075;-72
2024/02/22 07:15:16;;;;;;;;;;;;;;;11.23;54.47;99034.03;4923827;28;99785;-72
2024/02/22 07:17:45;;;;;;;;;;;;;;;11.23;54.34;99034.81;4919421;28;98125;-68
2024/02/22 07:20:13;;;;;;;;;;;;;;;11.23;54.38;99026.72;4920677;28;99390;-68
2024/02/22 07:22:42;;;;;;;;;;;;;;;11.25;54.64;99026.44;4904389;28;98342;-72
2024/02/22 07:25:11;;;;;;;;;;;;;;;11.26;54.45;99025.34;4902525;28;98302;-72
2024/02/22 07:27:39;;;;;;;;;;;;;;;11.24;54.44;99014.06;4906100;28;99157;-72
2024/02/22 07:30:07;;;;;;;;;;;;;;;11.25;54.42;99013.75;4907230;28;98646;-72
2024/02/22 07:32:33;;;;;;;;;;;;;;;11.27;54.42;99021.53;4904250;28;98099;-71
2024/02/22 07:35:02;;;;;;;;;;;;;;;11.27;54.54;99008.84;4904068;28;97899;-68
2024/02/22 07:37:28;;;;;;;;;;;;;;;11.30;54.37;99010.13;4908045;28;98445;-68
2024/02/22 07:39:55;;;;;;;;;;;;;;;11.29;54.31;99012.03;4905409;28;98043;-68
2024/02/22 07:42:21;;;;;;;;;;;;;;;11.30;54.36;99016.31;4905109;28;98621;-68
2024/02/22 07:44:47;;;;;;;;;;;;;;;11.29;54.36;99009.34;4919873;28;98857;-72
2024/02/22 07:47:13;;;;;;;;;;;;;;;11.31;54.25;98999.00;4917893;28;99071;-68
2024/02/22 07:49:40;;;;;;;;;;;;;;;11.35;54.27;99003.81;4900293;28;98296;-68
2024/02/22 07:52:09;;;;;;;;;;;;;;;11.36;54.33;99003.50;4905030;28;101064;-68
2024/02/22 07:54:37;;;;;;;;;;;;;;;11.39;54.26;98994.00;4897803;28;98516;-68
2024/02/22 07:57:04;;;;;;;;;;;;;;;11.42;54.23;98993.38;4918638;28;97986;-68
2024/02/22 07:59:31;;;;;;;;;;;;;;;11.44;54.35;98994.69;4903693;28;98196;-68
2024/02/22 08:01:58;;;;;;;;;;;;;;;11.48;54.16;98992.97;4922221;28;98814;-72
2024/02/22 08:04:26;;;;;;;;;;;;;;;11.50;54.17;98989.94;4918336;28;98467;-68
2024/02/22 08:06:52;;;;;;;;;;;;;;;11.52;54.22;98983.13;4923408;28;99118;-72
2024/02/22 08:09:18;;;;;;;;;;;;;;;11.55;54.14;98984.41;4900816;28;98021;-72
2024/02/22 08:11:45;;;;;;;;;;;;;;;11.57;54.26;98986.81;4921152;28;98087;-68
2024/02/22 08:14:12;;;;;;;;;;;;;;;11.57;54.22;98976.81;4919597;28;98095;-68
2024/02/22 08:16:40;;;;;;;;;;;;;;;11.62;54.03;98971.28;4907736;28;97859;-68
2024/02/22 08:19:07;;;;;;;;;;;;;;;11.66;54.02;98974.94;4919651;28;98335;-72
2024/02/22 08:21:35;;;;;;;;;;;;;;;11.70;54.12;98967.03;4901205;28;98081;-69
2024/02/22 08:24:02;;;;;;;;;;;;;;;11.77;54.13;98962.78;4903920;28;100520;-68
2024/02/22 08:26:29;;;;;;;;;;;;;;;11.83;53.93;98958.09;4939981;28;97790;-71
2024/02/22 08:28:56;;;;;;;;;;;;;;;11.85;54.16;98960.47;4908340;28;98450;-71
2024/02/22 08:31:27;;;;;;;;;;;;;;;11.85;54.01;98955.06;4918907;28;98011;-68
2024/02/22 08:33:54;;;;;;;;;;;;;;;11.84;54.02;98953.47;4922925;28;98456;-72
2024/02/22 08:36:20;;;;;;;;;;;;;;;11.84;54.24;98953.47;4922193;28;98131;-72
2024/02/22 08:38:46;;;;;;;;;;;;;;;11.85;54.26;98945.06;4917369;28;98425;-72
2024/02/22 08:41:13;;;;;;;;;;;;;;;11.88;54.04;98944.44;4905173;28;100314;-72
2024/02/22 08:43:42;;;;;;;;;;;;;;;11.93;54.02;98946.19;4925275;28;98562;-69
2024/02/22 08:46:08;;;;;;;;;;;;;;;11.96;54.01;98938.25;4923711;28;99093;-69
2024/02/22 08:48:35;;;;;;;;;;;;;;;11.97;53.97;98933.66;4900162;28;98361;-72
2024/02/22 08:51:03;;;;;;;;;;;;;;;11.96;54.08;98929.38;4934217;28;98179;-69
2024/02/22 08:53:31;;;;;;;;;;;;;;;11.93;54.06;98925.38;4911630;28;100061;-69
2024/02/22 08:55:59;;;;;;;;;;;;;;;11.94;54.10;98932.38;4906451;28;98561;-69
2024/02/22 08:58:29;;;;;;;;;;;;;;;11.95;53.93;98927.78;4915395;28;98143;-69
2024/02/22 09:00:55;;;;;;;;;;;;;;;11.95;54.04;98917.78;4909528;28;98327;-68
2024/02/22 09:03:22;;;;;;;;;;;;;;;11.96;54.29;98915.88;4914300;28;100391;-72
2024/02/22 09:05:48;;;;;;;;;;;;;;;11.98;54.03;98919.81;4914661;28;98028;-69
2024/02/22 09:08:16;;;;;;;;;;;;;;;12.04;54.13;98915.09;4903953;28;98068;-69
2024/02/22 09:10:42;;;;;;;;;;;;;;;12.10;54.07;98910.31;4906881;28;98096;-71
2024/02/22 09:13:09;;;;;;;;;;;;;;;12.16;53.97;98909.88;4903611;28;98204;-68
2024/02/22 09:15:36;;;;;;;;;;;;;;;12.22;53.91;98907.81;4912821;28;98062;-68
2024/02/22 09:18:02;;;;;;;;;;;;;;;12.23;53.80;98904.81;4917937;28;98067;-71
2024/02/22 09:20:29;;;;;;;;;;;;;;;12.25;53.75;98907.97;4907339;28;98135;-68
2024/02/22 09:22:56;;;;;;;;;;;;;;;12.26;53.85;98898.78;4919413;28;97923;-68
2024/02/22 09:25:23;;;;;;;;;;;;;;;12.27;53.97;98894.97;4917698;28;98504;-72
2024/02/22 09:27:49;;;;;;;;;;;;;;;12.28;53.96;98890.34;4910775;28;98278;-68
2024/02/22 09:30:16;;;;;;;;;;;;;;;12.28;54.09;98890.34;4921592;28;97973;-68
2024/02/22 09:32:42;;;;;;;;;;;;;;;12.29;53.99;98891.94;4925175;28;99571;-68
2024/02/22 09:35:08;;;;;;;;;;;;;;;12.27;53.93;98891.47;4902742;28;98325;-68
2024/02/22 09:37:35;;;;;;;;;;;;;;;12.24;54.00;98884.78;4940025;28;98651;-71
2024/02/22 09:40:02;;;;;;;;;;;;;;;12.22;54.20;98884.31;4903448;28;98577;-71
2024/02/22 09:42:30;;;;;;;;;;;;;;;12.22;54.10;98883.50;4902679;28;98004;-71
2024/02/22 09:44:57;;;;;;;;;;;;;;;12.22;54.07;98883.50;4907422;28;99056;-71
2024/02/22 09:47:23;;;;;;;;;;;;;;;12.26;54.11;98879.06;4911430;28;98171;-68
2024/02/22 09:49:49;;;;;;;;;;;;;;;12.36;53.98;98876.06;4910251;28;98231;-68
2024/02/22 09:52:19;;;;;;;;;;;;;;;12.50;53.92;98878.63;4917713;28;98418;-68
2024/02/22 09:54:47;;;;;;;;;;;;;;;12.56;53.59;98876.53;4923749;28;98332;-68
2024/02/22 09:57:14;;;;;;;;;;;;;;;12.66;53.87;98878.94;4906720;28;98300;-71
2024/02/22 09:59:51;;;;;;;;;;;;;;;12.75;53.71;98877.78;4920909;28;99942;-72
2024/02/22 10:02:18;;;;;;;;;;;;;;;12.76;53.94;98873.19;4924482;28;100440;-71
2024/02/22 10:04:55;;;;;;;;;;;;;;;12.86;53.84;98862.03;4926005;28;98000;-68
2024/02/22 10:07:32;;;;;;;;;;;;;;;13.11;53.33;98851.47;4905601;28;98188;-68
2024/02/22 10:09:58;;;;;;;;;;;;;;;13.50;53.18;98845.78;4920391;28;98407;-71
2024/02/22 10:12:32;;;;;;;;;;;;;;;14.06;52.36;98845.63;4933756;28;98409;-68
2024/02/22 10:15:08;;;;;;;;;;;;;;;14.32;52.39;98842.75;4923208;28;98068;-68
2024/02/22 10:17:42;;;;;;;;;;;;;;;14.48;52.46;98835.59;4909921;28;98430;-68
2024/02/22 10:20:09;;;;;;;;;;;;;;;14.65;52.34;98842.81;4907790;28;99268;-71
2024/02/22 10:22:37;;;;;;;;;;;;;;;14.97;51.93;98822.25;4940215;28;98151;-68
2024/02/22 10:25:10;;;;;;;;;;;;;;;15.07;52.30;98823.72;4908136;28;98845;-71
2024/02/22 10:27:36;;;;;;;;;;;;;;;15.09;52.38;98818.78;4920410;28;98240;-71
2024/02/22 10:30:10;;;;;;;;;;;;;;;15.29;52.45;98813.56;4928085;28;100934;-67
2024/02/22 10:32:41;;;;;;;;;;;;;;;15.41;52.38;98808.16;4938030;28;98004;-67
2024/02/22 10:35:12;;;;;;;;;;;;;;;15.30;52.59;98807.03;4926367;28;98378;-71
2024/02/22 10:37:38;;;;;;;;;;;;;;;15.19;52.86;98804.75;4927605;28;98292;-67
2024/02/22 10:40:05;;;;;;;;;;;;;;;15.08;53.27;98797.38;4922170;28;98375;-67
2024/02/22 10:42:32;;;;;;;;;;;;;;;14.98;53.31;98799.41;4923362;28;98029;-67
2024/02/22 10:44:59;;;;;;;;;;;;;;;14.87;53.31;98800.19;4924003;28;98664;-68
2024/02/22 10:47:28;;;;;;;;;;;;;;;14.83;53.31;98794.63;4922127;28;98045;-67
2024/02/22 10:49:57;;;;;;;;;;;;;;;14.88;53.39;98782.75;4934482;28;98113;-71
2024/02/22 10:52:25;;;;;;;;;;;;;;;14.85;53.40;98784.22;4917054;28;98208;-71
2024/02/22 10:54:58;;;;;;;;;;;;;;;14.81;53.22;98780.59;4940413;28;98925;-67
2024/02/22 10:57:27;;;;;;;;;;;;;;;14.78;53.52;98775.06;4923952;28;99133;-71
2024/02/22 10:59:54;;;;;;;;;;;;;;;14.73;53.43;98765.22;4923824;28;98711;-71
2024/02/22 11:02:21;;;;;;;;;;;;;;;14.69;53.43;98767.00;4942634;28;98596;-67
2024/02/22 11:04:47;;;;;;;;;;;;;;;14.65;53.64;98761.47;4920568;28;99203;-71
2024/02/22 11:07:13;;;;;;;;;;;;;;;14.65;53.63;98758.75;4921576;28;98273;-71
2024/02/22 11:09:40;;;;;;;;;;;;;;;14.66;53.48;98754.16;4921908;28;99048;-67
2024/02/22 11:12:10;;;;;;;;;;;;;;;14.65;53.62;98749.81;4905038;28;98300;-71
2024/02/22 11:14:40;;;;;;;;;;;;;;;14.62;53.82;98747.78;4926637;28;99225;-71
2024/02/22 11:17:17;;;;;;;;;;;;;;;14.61;53.55;98738.84;4919516;28;98000;-71
2024/02/22 11:19:51;;;;;;;;;;;;;;;14.63;53.76;98739.31;4917918;28;103042;-71
2024/02/22 11:22:18;;;;;;;;;;;;;;;14.65;53.58;98736.25;4920849;28;98312;-71
2024/02/22 11:24:47;;;;;;;;;;;;;;;14.66;53.77;98733.25;4904591;28;111811;-72
2024/02/22 11:27:17;;;;;;;;;;;;;;;14.71;53.64;98718.66;4915327;28;101624;-70
2024/02/22 11:29:44;;;;;;;;;;;;;;;14.76;53.46;98715.72;4916810;28;98216;-67
2024/02/22 11:32:12;;;;;;;;;;;;;;;14.77;53.60;98708.38;4933226;28;98329;-67
2024/02/22 11:34:38;;;;;;;;;;;;;;;14.78;53.51;98709.97;4931699;28;98141;-71
2024/02/22 11:37:18;;;;;;;;;;;;;;;14.79;53.87;98698.78;4916815;28;98379;-67
2024/02/22 11:39:45;;;;;;;;;;;;;;;14.84;53.49;98698.56;4924954;28;98556;-71
2024/02/22 11:42:18;;;;;;;;;;;;;;;14.90;53.58;98691.78;4916635;28;98090;-71
2024/02/22 11:44:45;;;;;;;;;;;;;;;14.92;53.53;98680.59;4936101;28;99016;-71
2024/02/22 11:47:14;;;;;;;;;;;;;;;14.97;53.44;98685.78;4942964;28;98689;-67
2024/02/22 11:49:44;;;;;;;;;;;;;;;15.08;53.43;98675.28;4906511;28;98184;-67
2024/02/22 11:52:12;;;;;;;;;;;;;;;15.05;53.74;98675.94;4902787;28;98403;-71
2024/02/22 11:54:40;;;;;;;;;;;;;;;14.99;53.48;98672.69;4906992;28;98348;-72
2024/02/22 11:57:08;;;;;;;;;;;;;;;14.93;53.60;98666.72;4919816;28;98433;-67
2024/02/22 11:59:34;;;;;;;;;;;;;;;14.99;53.57;98664.53;4910970;28;98087;-71
2024/02/22 12:02:05;;;;;;;;;;;;;;;14.96;53.76;98657.09;4907557;28;98112;-67
2024/02/22 12:04:33;;;;;;;;;;;;;;;15.09;53.62;98647.81;4920955;28;98066;-67
2024/02/22 12:07:03;;;;;;;;;;;;;;;15.12;53.46;98649.84;4921415;28;98842;-71
2024/02/22 12:09:32;;;;;;;;;;;;;;;15.09;53.48;98647.81;4919829;28;99342;-67
2024/02/22 12:11:58;;;;;;;;;;;;;;;15.10;53.57;98635.81;4949739;28;98155;-71
2024/02/22 12:14:25;;;;;;;;;;;;;;;15.12;53.77;98630.06;4905408;28;99693;-67
2024/02/22 12:16:53;;;;;;;;;;;;;;;15.22;53.37;98627.66;4920611;28;98299;-67
2024/02/22 12:19:21;;;;;;;;;;;;;;;15.17;53.49;98624.41;4917286;28;98172;-67
2024/02/22 12:21:49;;;;;;;;;;;;;;;15.15;53.65;98626.66;4950666;28;98896;-67
2024/02/22 12:24:16;;;;;;;;;;;;;;;15.29;53.54;98613.53;4919266;28;98046;-71
2024/02/22 12:26:51;;;;;;;;;;;;;;;15.34;53.33;98610.56;4927365;28;98111;-67
2024/02/22 12:29:18;;;;;;;;;;;;;;;15.35;53.39;98606.72;4917076;28;98110;-71
2024/02/22 12:31:45;;;;;;;;;;;;;;;15.42;53.36;98595.28;4923060;28;98261;-71
2024/02/22 12:34:13;;;;;;;;;;;;;;;15.54;53.45;98599.88;4916043;28;98208;-71
2024/02/22 12:36:45;;;;;;;;;;;;;;;15.56;53.43;98575.88;4922122;28;98365;-67
2024/02/22 12:39:11;;;;;;;;;;;;;;;15.61;53.32;98581.84;4932983;28;98063;-67
2024/02/22 12:41:42;;;;;;;;;;;;;;;15.61;53.42;98583.78;4933549;28;98473;-67
2024/02/22 12:44:09;;;;;;;;;;;;;;;15.69;53.37;98575.53;4916692;28;98222;-67
2024/02/22 12:46:40;;;;;;;;;;;;;;;15.75;53.17;98564.41;4928236;28;98083;-71